Norwich, Kansas
Current Conditions -  °F | °C
As of 3:53 PM on Tuesday 21 Oct 2014 (Local Time) from KICT Reporting Station
Few Clouds Few Clouds  
Wind Chill: 82°   Ceiling: Unl
Heat Index: 82°   Visibility: 10mi
Dew Point: 59°   Wind: 14mph
Humidity: 45%   Direction: 180°S
Pressure: 30.01"   Gusts: 20mph
Location:  37.46°N, 97.85°W
Report Text: KICT 212053Z 18012G17KT 10SM FEW050 28/15 A3001 RMK AO2 SLP154 T02780150 56023
Loading
Personal Weather Stations






























Interactive Weather Map New forecast layout! Learn more

10-Day Weather Forecast

Advertisements
Track Severe Weather on mobile